Terminal Aerodrome Forecast
Issued by NWS Norman, OK

Home | Current Version | Previous Version | Text Only | Print | Product List | Glossary On
Versions: 1 2 3 4 5 6 7 8 9 10 11 12 13 14
000
FTUS44 KOUN 291741
TAFOKC
TAF
KOKC 291741Z 2918/3018 01014KT P6SM OVC005
      TEMPO 2918/2922 3SM -TSRA SCT007 OVC015CB
     FM292200 35012KT 4SM BR OVC007
     FM301300 27016G24KT P6SM OVC007 PROB30 3013/3017 -RA=

USA.gov is the U.S. government's official web portal to all federal, state and local government web resources and services.